sensor_id;sensor_type;location;lat;lon;timestamp;P1;durP1;ratioP1;P2;durP2;ratioP2
66402;SDS011;53212;52.112;5.144;2023-07-20T00:00:59;2.50;;;2.30;;
66402;SDS011;53212;52.112;5.144;2023-07-20T00:03:24;2.80;;;2.50;;
66402;SDS011;53212;52.112;5.144;2023-07-20T00:05:51;2.40;;;2.10;;
66402;SDS011;53212;52.112;5.144;2023-07-20T00:08:18;2.50;;;2.30;;
66402;SDS011;53212;52.112;5.144;2023-07-20T00:10:43;3.00;;;2.20;;
66402;SDS011;53212;52.112;5.144;2023-07-20T00:13:10;2.60;;;2.40;;
66402;SDS011;53212;52.112;5.144;2023-07-20T00:15:36;2.50;;;2.30;;
66402;SDS011;53212;52.112;5.144;2023-07-20T00:18:03;2.20;;;2.10;;
66402;SDS011;53212;52.112;5.144;2023-07-20T00:20:29;2.30;;;2.10;;
66402;SDS011;53212;52.112;5.144;2023-07-20T00:22:55;2.00;;;1.90;;
66402;SDS011;53212;52.112;5.144;2023-07-20T00:25:22;3.10;;;1.90;;
66402;SDS011;53212;52.112;5.144;2023-07-20T00:27:48;1.90;;;1.80;;
66402;SDS011;53212;52.112;5.144;2023-07-20T00:30:14;1.90;;;1.80;;
66402;SDS011;53212;52.112;5.144;2023-07-20T00:32:39;2.20;;;2.00;;
66402;SDS011;53212;52.112;5.144;2023-07-20T00:35:05;2.40;;;2.10;;
66402;SDS011;53212;52.112;5.144;2023-07-20T00:37:31;2.00;;;1.90;;
66402;SDS011;53212;52.112;5.144;2023-07-20T00:39:56;2.20;;;2.10;;
66402;SDS011;53212;52.112;5.144;2023-07-20T00:42:22;1.80;;;1.70;;
66402;SDS011;53212;52.112;5.144;2023-07-20T00:44:47;2.30;;;2.10;;
66402;SDS011;53212;52.112;5.144;2023-07-20T00:47:12;2.30;;;1.80;;
66402;SDS011;53212;52.112;5.144;2023-07-20T00:49:38;2.20;;;1.80;;
66402;SDS011;53212;52.112;5.144;2023-07-20T00:52:06;2.10;;;1.80;;
66402;SDS011;53212;52.112;5.144;2023-07-20T00:54:33;1.90;;;1.70;;
66402;SDS011;53212;52.112;5.144;2023-07-20T00:57:00;1.70;;;1.60;;
66402;SDS011;53212;52.112;5.144;2023-07-20T00:59:26;1.40;;;1.30;;
66402;SDS011;53212;52.112;5.144;2023-07-20T01:01:52;1.90;;;1.50;;
66402;SDS011;53212;52.112;5.144;2023-07-20T01:04:18;2.80;;;1.50;;
66402;SDS011;53212;52.112;5.144;2023-07-20T01:09:36;1.40;;;1.30;;
66402;SDS011;53212;52.112;5.144;2023-07-20T01:12:13;2.10;;;1.40;;
66402;SDS011;53212;52.112;5.144;2023-07-20T01:14:45;1.30;;;1.20;;
66402;SDS011;53212;52.112;5.144;2023-07-20T01:17:11;2.10;;;1.30;;
66402;SDS011;53212;52.112;5.144;2023-07-20T01:19:37;2.10;;;1.30;;
66402;SDS011;53212;52.112;5.144;2023-07-20T01:22:15;2.40;;;1.40;;
66402;SDS011;53212;52.112;5.144;2023-07-20T01:31:18;1.30;;;1.20;;
66402;SDS011;53212;52.112;5.144;2023-07-20T01:33:57;1.20;;;1.10;;
66402;SDS011;53212;52.112;5.144;2023-07-20T01:36:28;1.30;;;1.20;;
66402;SDS011;53212;52.112;5.144;2023-07-20T01:38:59;1.40;;;1.30;;
66402;SDS011;53212;52.112;5.144;2023-07-20T01:41:25;2.10;;;1.40;;
66402;SDS011;53212;52.112;5.144;2023-07-20T01:43:51;2.70;;;1.80;;
66402;SDS011;53212;52.112;5.144;2023-07-20T01:46:16;1.90;;;1.30;;
66402;SDS011;53212;52.112;5.144;2023-07-20T01:48:42;1.60;;;1.50;;
66402;SDS011;53212;52.112;5.144;2023-07-20T01:51:08;2.60;;;1.80;;
66402;SDS011;53212;52.112;5.144;2023-07-20T01:53:33;2.70;;;1.60;;
66402;SDS011;53212;52.112;5.144;2023-07-20T01:55:59;2.50;;;1.50;;
66402;SDS011;53212;52.112;5.144;2023-07-20T01:58:24;1.50;;;1.40;;
66402;SDS011;53212;52.112;5.144;2023-07-20T02:00:50;1.80;;;1.60;;
66402;SDS011;53212;52.112;5.144;2023-07-20T02:03:15;1.70;;;1.50;;
66402;SDS011;53212;52.112;5.144;2023-07-20T02:05:44;2.30;;;1.40;;
66402;SDS011;53212;52.112;5.144;2023-07-20T02:08:10;2.30;;;1.50;;
66402;SDS011;53212;52.112;5.144;2023-07-20T02:10:36;1.50;;;1.40;;
66402;SDS011;53212;52.112;5.144;2023-07-20T02:13:02;2.30;;;1.60;;
66402;SDS011;53212;52.112;5.144;2023-07-20T02:15:27;1.40;;;1.30;;
66402;SDS011;53212;52.112;5.144;2023-07-20T02:17:54;1.80;;;1.60;;
66402;SDS011;53212;52.112;5.144;2023-07-20T02:20:19;2.50;;;1.70;;
66402;SDS011;53212;52.112;5.144;2023-07-20T02:22:45;2.30;;;1.60;;
66402;SDS011;53212;52.112;5.144;2023-07-20T02:25:11;3.20;;;1.80;;
66402;SDS011;53212;52.112;5.144;2023-07-20T02:27:37;1.40;;;1.30;;
66402;SDS011;53212;52.112;5.144;2023-07-20T02:30:04;1.60;;;1.50;;
66402;SDS011;53212;52.112;5.144;2023-07-20T02:32:30;2.00;;;1.70;;
66402;SDS011;53212;52.112;5.144;2023-07-20T02:34:57;1.70;;;1.60;;
66402;SDS011;53212;52.112;5.144;2023-07-20T02:37:23;2.50;;;1.60;;
66402;SDS011;53212;52.112;5.144;2023-07-20T02:39:49;2.00;;;1.60;;
66402;SDS011;53212;52.112;5.144;2023-07-20T02:42:15;2.00;;;1.80;;
66402;SDS011;53212;52.112;5.144;2023-07-20T02:44:40;2.60;;;2.00;;
66402;SDS011;53212;52.112;5.144;2023-07-20T02:47:06;2.00;;;1.80;;
66402;SDS011;53212;52.112;5.144;2023-07-20T02:49:31;2.30;;;1.80;;
66402;SDS011;53212;52.112;5.144;2023-07-20T02:51:57;1.80;;;1.70;;
66402;SDS011;53212;52.112;5.144;2023-07-20T02:54:22;2.80;;;1.80;;
66402;SDS011;53212;52.112;5.144;2023-07-20T02:56:47;2.10;;;1.70;;
66402;SDS011;53212;52.112;5.144;2023-07-20T02:59:13;2.10;;;1.70;;
66402;SDS011;53212;52.112;5.144;2023-07-20T03:01:38;1.70;;;1.60;;
66402;SDS011;53212;52.112;5.144;2023-07-20T03:04:04;2.00;;;1.80;;
66402;SDS011;53212;52.112;5.144;2023-07-20T03:06:29;1.80;;;1.70;;
66402;SDS011;53212;52.112;5.144;2023-07-20T03:08:55;1.50;;;1.40;;
66402;SDS011;53212;52.112;5.144;2023-07-20T03:11:21;1.60;;;1.50;;
66402;SDS011;53212;52.112;5.144;2023-07-20T03:13:47;3.20;;;1.80;;
66402;SDS011;53212;52.112;5.144;2023-07-20T03:16:13;1.70;;;1.60;;
66402;SDS011;53212;52.112;5.144;2023-07-20T03:18:43;1.60;;;1.50;;
66402;SDS011;53212;52.112;5.144;2023-07-20T03:21:08;1.50;;;1.40;;
66402;SDS011;53212;52.112;5.144;2023-07-20T03:23:38;1.90;;;1.80;;
66402;SDS011;53212;52.112;5.144;2023-07-20T03:26:05;1.60;;;1.50;;
66402;SDS011;53212;52.112;5.144;2023-07-20T03:28:30;1.90;;;1.70;;
66402;SDS011;53212;52.112;5.144;2023-07-20T03:30:56;1.80;;;1.70;;
66402;SDS011;53212;52.112;5.144;2023-07-20T03:33:26;1.70;;;1.60;;
66402;SDS011;53212;52.112;5.144;2023-07-20T03:35:53;3.30;;;2.10;;
66402;SDS011;53212;52.112;5.144;2023-07-20T03:38:20;2.70;;;2.20;;
66402;SDS011;53212;52.112;5.144;2023-07-20T03:40:57;2.60;;;2.40;;
66402;SDS011;53212;52.112;5.144;2023-07-20T03:43:25;2.30;;;2.10;;
66402;SDS011;53212;52.112;5.144;2023-07-20T03:45:52;2.30;;;2.10;;
66402;SDS011;53212;52.112;5.144;2023-07-20T03:48:19;2.30;;;2.20;;
66402;SDS011;53212;52.112;5.144;2023-07-20T03:50:50;2.30;;;2.10;;
66402;SDS011;53212;52.112;5.144;2023-07-20T03:53:17;2.60;;;2.40;;
66402;SDS011;53212;52.112;5.144;2023-07-20T03:55:47;2.80;;;2.60;;
66402;SDS011;53212;52.112;5.144;2023-07-20T03:58:13;3.40;;;2.80;;
66402;SDS011;53212;52.112;5.144;2023-07-20T04:00:39;3.00;;;2.80;;
66402;SDS011;53212;52.112;5.144;2023-07-20T04:03:08;2.70;;;2.50;;
66402;SDS011;53212;52.112;5.144;2023-07-20T04:05:33;3.60;;;3.30;;
66402;SDS011;53212;52.112;5.144;2023-07-20T04:07:59;3.10;;;2.90;;
66402;SDS011;53212;52.112;5.144;2023-07-20T04:10:24;4.10;;;3.10;;
66402;SDS011;53212;52.112;5.144;2023-07-20T04:12:49;6.30;;;3.70;;
66402;SDS011;53212;52.112;5.144;2023-07-20T04:15:15;4.20;;;3.80;;
66402;SDS011;53212;52.112;5.144;2023-07-20T04:17:40;3.90;;;3.60;;
66402;SDS011;53212;52.112;5.144;2023-07-20T04:20:07;3.70;;;3.40;;
66402;SDS011;53212;52.112;5.144;2023-07-20T04:22:33;3.50;;;3.30;;
66402;SDS011;53212;52.112;5.144;2023-07-20T04:24:59;3.70;;;3.30;;
66402;SDS011;53212;52.112;5.144;2023-07-20T04:27:24;4.30;;;3.70;;
66402;SDS011;53212;52.112;5.144;2023-07-20T04:29:50;4.20;;;3.80;;
66402;SDS011;53212;52.112;5.144;2023-07-20T04:32:15;6.40;;;3.70;;
66402;SDS011;53212;52.112;5.144;2023-07-20T04:34:41;4.20;;;3.90;;
66402;SDS011;53212;52.112;5.144;2023-07-20T04:37:07;5.00;;;3.10;;
66402;SDS011;53212;52.112;5.144;2023-07-20T04:39:33;4.00;;;3.50;;
66402;SDS011;53212;52.112;5.144;2023-07-20T04:41:58;3.70;;;3.30;;
66402;SDS011;53212;52.112;5.144;2023-07-20T04:44:24;4.70;;;3.50;;
66402;SDS011;53212;52.112;5.144;2023-07-20T04:46:49;4.50;;;3.30;;
66402;SDS011;53212;52.112;5.144;2023-07-20T04:49:15;3.90;;;2.90;;
66402;SDS011;53212;52.112;5.144;2023-07-20T04:51:40;3.90;;;3.10;;
66402;SDS011;53212;52.112;5.144;2023-07-20T04:54:06;5.70;;;5.10;;
66402;SDS011;53212;52.112;5.144;2023-07-20T04:56:31;4.60;;;3.60;;
66402;SDS011;53212;52.112;5.144;2023-07-20T04:58:57;3.60;;;3.40;;
66402;SDS011;53212;52.112;5.144;2023-07-20T05:01:23;4.30;;;3.50;;
66402;SDS011;53212;52.112;5.144;2023-07-20T05:03:48;3.40;;;3.00;;
66402;SDS011;53212;52.112;5.144;2023-07-20T05:06:14;3.10;;;2.90;;
66402;SDS011;53212;52.112;5.144;2023-07-20T05:08:40;4.80;;;3.10;;
66402;SDS011;53212;52.112;5.144;2023-07-20T05:11:06;3.10;;;2.90;;
66402;SDS011;53212;52.112;5.144;2023-07-20T05:13:32;4.10;;;2.50;;
66402;SDS011;53212;52.112;5.144;2023-07-20T05:15:58;2.40;;;2.20;;
66402;SDS011;53212;52.112;5.144;2023-07-20T05:18:24;2.80;;;2.60;;
66402;SDS011;53212;52.112;5.144;2023-07-20T05:20:50;2.60;;;2.40;;
66402;SDS011;53212;52.112;5.144;2023-07-20T05:23:17;2.20;;;2.00;;
66402;SDS011;53212;52.112;5.144;2023-07-20T05:25:45;2.20;;;2.00;;
66402;SDS011;53212;52.112;5.144;2023-07-20T05:28:10;3.00;;;1.80;;
66402;SDS011;53212;52.112;5.144;2023-07-20T05:30:36;1.70;;;1.60;;
66402;SDS011;53212;52.112;5.144;2023-07-20T05:33:01;2.00;;;1.80;;
66402;SDS011;53212;52.112;5.144;2023-07-20T05:35:27;1.70;;;1.60;;
66402;SDS011;53212;52.112;5.144;2023-07-20T05:37:52;2.00;;;1.80;;
66402;SDS011;53212;52.112;5.144;2023-07-20T05:40:18;3.40;;;1.50;;
66402;SDS011;53212;52.112;5.144;2023-07-20T05:42:48;1.40;;;1.30;;
66402;SDS011;53212;52.112;5.144;2023-07-20T05:45:16;4.90;;;1.10;;
66402;SDS011;53212;52.112;5.144;2023-07-20T05:47:43;1.30;;;1.10;;
66402;SDS011;53212;52.112;5.144;2023-07-20T05:50:09;1.80;;;1.10;;
66402;SDS011;53212;52.112;5.144;2023-07-20T05:52:34;2.00;;;1.10;;
66402;SDS011;53212;52.112;5.144;2023-07-20T05:55:00;0.90;;;0.90;;
66402;SDS011;53212;52.112;5.144;2023-07-20T05:57:25;1.80;;;1.00;;
66402;SDS011;53212;52.112;5.144;2023-07-20T05:59:51;1.70;;;0.90;;
66402;SDS011;53212;52.112;5.144;2023-07-20T06:02:16;1.30;;;1.10;;
66402;SDS011;53212;52.112;5.144;2023-07-20T06:04:42;1.40;;;1.20;;
66402;SDS011;53212;52.112;5.144;2023-07-20T06:07:07;2.10;;;1.10;;
66402;SDS011;53212;52.112;5.144;2023-07-20T06:09:33;1.30;;;1.10;;
66402;SDS011;53212;52.112;5.144;2023-07-20T06:11:59;1.40;;;0.90;;
66402;SDS011;53212;52.112;5.144;2023-07-20T06:14:25;1.20;;;0.90;;
66402;SDS011;53212;52.112;5.144;2023-07-20T06:16:50;1.10;;;1.00;;
66402;SDS011;53212;52.112;5.144;2023-07-20T06:19:16;0.60;;;0.60;;
66402;SDS011;53212;52.112;5.144;2023-07-20T06:21:41;0.80;;;0.80;;
66402;SDS011;53212;52.112;5.144;2023-07-20T06:24:08;0.90;;;0.70;;
66402;SDS011;53212;52.112;5.144;2023-07-20T06:26:33;1.90;;;0.60;;
66402;SDS011;53212;52.112;5.144;2023-07-20T06:29:07;0.90;;;0.60;;
66402;SDS011;53212;52.112;5.144;2023-07-20T06:31:34;0.90;;;0.60;;
66402;SDS011;53212;52.112;5.144;2023-07-20T06:34:00;2.00;;;0.80;;
66402;SDS011;53212;52.112;5.144;2023-07-20T06:36:26;1.40;;;0.70;;
66402;SDS011;53212;52.112;5.144;2023-07-20T06:38:52;0.60;;;0.60;;
66402;SDS011;53212;52.112;5.144;2023-07-20T06:41:18;1.00;;;0.50;;
66402;SDS011;53212;52.112;5.144;2023-07-20T06:43:44;0.60;;;0.50;;
66402;SDS011;53212;52.112;5.144;2023-07-20T06:46:10;0.70;;;0.70;;
66402;SDS011;53212;52.112;5.144;2023-07-20T06:48:35;0.60;;;0.40;;
66402;SDS011;53212;52.112;5.144;2023-07-20T06:51:01;0.80;;;0.70;;
66402;SDS011;53212;52.112;5.144;2023-07-20T06:53:28;1.80;;;0.60;;
66402;SDS011;53212;52.112;5.144;2023-07-20T06:55:54;1.40;;;0.70;;
66402;SDS011;53212;52.112;5.144;2023-07-20T06:58:22;2.10;;;0.60;;
66402;SDS011;53212;52.112;5.144;2023-07-20T07:00:48;0.60;;;0.60;;
66402;SDS011;53212;52.112;5.144;2023-07-20T07:03:14;0.60;;;0.30;;
66402;SDS011;53212;52.112;5.144;2023-07-20T07:05:39;0.60;;;0.60;;
66402;SDS011;53212;52.112;5.144;2023-07-20T07:08:05;1.20;;;0.70;;
66402;SDS011;53212;52.112;5.144;2023-07-20T07:10:30;1.20;;;0.50;;
66402;SDS011;53212;52.112;5.144;2023-07-20T07:12:56;0.70;;;0.60;;
66402;SDS011;53212;52.112;5.144;2023-07-20T07:15:21;0.90;;;0.50;;
66402;SDS011;53212;52.112;5.144;2023-07-20T07:17:47;0.50;;;0.50;;
66402;SDS011;53212;52.112;5.144;2023-07-20T07:20:13;0.80;;;0.50;;
66402;SDS011;53212;52.112;5.144;2023-07-20T07:22:38;0.50;;;0.50;;
66402;SDS011;53212;52.112;5.144;2023-07-20T07:25:04;1.50;;;0.60;;
66402;SDS011;53212;52.112;5.144;2023-07-20T07:27:30;0.60;;;0.50;;
66402;SDS011;53212;52.112;5.144;2023-07-20T07:29:55;0.90;;;0.60;;
66402;SDS011;53212;52.112;5.144;2023-07-20T07:32:21;1.20;;;0.50;;
66402;SDS011;53212;52.112;5.144;2023-07-20T07:34:47;0.50;;;0.40;;
66402;SDS011;53212;52.112;5.144;2023-07-20T07:37:13;0.90;;;0.40;;
66402;SDS011;53212;52.112;5.144;2023-07-20T07:39:39;0.80;;;0.60;;
66402;SDS011;53212;52.112;5.144;2023-07-20T07:42:05;1.70;;;0.50;;
66402;SDS011;53212;52.112;5.144;2023-07-20T07:44:31;2.50;;;0.40;;
66402;SDS011;53212;52.112;5.144;2023-07-20T07:46:56;0.50;;;0.40;;
66402;SDS011;53212;52.112;5.144;2023-07-20T07:49:22;0.50;;;0.40;;
66402;SDS011;53212;52.112;5.144;2023-07-20T07:51:48;1.10;;;0.70;;
66402;SDS011;53212;52.112;5.144;2023-07-20T07:54:13;0.50;;;0.50;;
66402;SDS011;53212;52.112;5.144;2023-07-20T07:56:39;0.50;;;0.50;;
66402;SDS011;53212;52.112;5.144;2023-07-20T07:59:06;0.80;;;0.40;;
66402;SDS011;53212;52.112;5.144;2023-07-20T08:01:32;0.40;;;0.30;;
66402;SDS011;53212;52.112;5.144;2023-07-20T08:03:57;2.20;;;0.60;;
66402;SDS011;53212;52.112;5.144;2023-07-20T08:06:24;0.70;;;0.60;;
66402;SDS011;53212;52.112;5.144;2023-07-20T08:08:50;0.70;;;0.40;;
66402;SDS011;53212;52.112;5.144;2023-07-20T08:11:15;0.70;;;0.40;;
66402;SDS011;53212;52.112;5.144;2023-07-20T08:13:43;1.20;;;0.40;;
66402;SDS011;53212;52.112;5.144;2023-07-20T08:16:08;0.80;;;0.50;;
66402;SDS011;53212;52.112;5.144;2023-07-20T08:18:34;0.30;;;0.30;;
66402;SDS011;53212;52.112;5.144;2023-07-20T08:20:59;0.60;;;0.40;;
66402;SDS011;53212;52.112;5.144;2023-07-20T08:23:25;0.70;;;0.40;;
66402;SDS011;53212;52.112;5.144;2023-07-20T08:25:52;0.90;;;0.50;;
66402;SDS011;53212;52.112;5.144;2023-07-20T08:28:18;0.40;;;0.40;;
66402;SDS011;53212;52.112;5.144;2023-07-20T08:30:46;0.70;;;0.50;;
66402;SDS011;53212;52.112;5.144;2023-07-20T08:33:14;1.40;;;0.60;;
66402;SDS011;53212;52.112;5.144;2023-07-20T08:35:41;0.60;;;0.50;;
66402;SDS011;53212;52.112;5.144;2023-07-20T08:38:08;0.50;;;0.40;;
66402;SDS011;53212;52.112;5.144;2023-07-20T08:40:38;1.90;;;0.50;;
66402;SDS011;53212;52.112;5.144;2023-07-20T08:43:05;0.40;;;0.30;;
66402;SDS011;53212;52.112;5.144;2023-07-20T08:45:34;0.40;;;0.40;;
66402;SDS011;53212;52.112;5.144;2023-07-20T08:48:03;0.80;;;0.50;;
66402;SDS011;53212;52.112;5.144;2023-07-20T08:50:31;0.40;;;0.40;;
66402;SDS011;53212;52.112;5.144;2023-07-20T08:52:58;0.90;;;0.60;;
66402;SDS011;53212;52.112;5.144;2023-07-20T08:55:26;0.40;;;0.40;;
66402;SDS011;53212;52.112;5.144;2023-07-20T08:57:56;0.90;;;0.40;;
66402;SDS011;53212;52.112;5.144;2023-07-20T09:02:51;1.70;;;0.60;;
66402;SDS011;53212;52.112;5.144;2023-07-20T09:05:18;0.90;;;0.20;;
66402;SDS011;53212;52.112;5.144;2023-07-20T09:07:44;0.70;;;0.60;;
66402;SDS011;53212;52.112;5.144;2023-07-20T09:10:10;1.00;;;0.50;;
66402;SDS011;53212;52.112;5.144;2023-07-20T09:12:42;0.50;;;0.50;;
66402;SDS011;53212;52.112;5.144;2023-07-20T09:15:09;0.40;;;0.40;;
66402;SDS011;53212;52.112;5.144;2023-07-20T09:17:36;0.30;;;0.30;;
66402;SDS011;53212;52.112;5.144;2023-07-20T09:20:07;0.90;;;0.40;;
66402;SDS011;53212;52.112;5.144;2023-07-20T09:22:37;0.90;;;0.40;;
66402;SDS011;53212;52.112;5.144;2023-07-20T09:25:08;1.20;;;0.60;;
66402;SDS011;53212;52.112;5.144;2023-07-20T09:27:43;0.60;;;0.50;;
66402;SDS011;53212;52.112;5.144;2023-07-20T09:30:11;1.00;;;0.60;;
66402;SDS011;53212;52.112;5.144;2023-07-20T09:32:47;0.60;;;0.50;;
66402;SDS011;53212;52.112;5.144;2023-07-20T09:35:17;1.70;;;0.40;;
66402;SDS011;53212;52.112;5.144;2023-07-20T09:37:50;1.40;;;0.40;;
66402;SDS011;53212;52.112;5.144;2023-07-20T09:40:19;0.90;;;0.70;;
66402;SDS011;53212;52.112;5.144;2023-07-20T09:42:45;1.00;;;0.80;;
66402;SDS011;53212;52.112;5.144;2023-07-20T09:45:11;0.40;;;0.40;;
66402;SDS011;53212;52.112;5.144;2023-07-20T09:47:37;0.60;;;0.50;;
66402;SDS011;53212;52.112;5.144;2023-07-20T09:50:04;0.70;;;0.40;;
66402;SDS011;53212;52.112;5.144;2023-07-20T09:52:35;1.00;;;0.60;;
66402;SDS011;53212;52.112;5.144;2023-07-20T09:55:04;1.90;;;0.70;;
66402;SDS011;53212;52.112;5.144;2023-07-20T09:57:31;0.70;;;0.60;;
66402;SDS011;53212;52.112;5.144;2023-07-20T09:59:58;1.40;;;0.50;;
66402;SDS011;53212;52.112;5.144;2023-07-20T10:02:32;0.50;;;0.50;;
66402;SDS011;53212;52.112;5.144;2023-07-20T10:05:01;1.10;;;0.50;;
66402;SDS011;53212;52.112;5.144;2023-07-20T10:07:30;0.70;;;0.70;;
66402;SDS011;53212;52.112;5.144;2023-07-20T10:09:56;0.80;;;0.70;;
66402;SDS011;53212;52.112;5.144;2023-07-20T10:12:26;0.60;;;0.60;;
66402;SDS011;53212;52.112;5.144;2023-07-20T10:14:59;1.70;;;0.50;;
66402;SDS011;53212;52.112;5.144;2023-07-20T10:17:37;0.80;;;0.60;;
66402;SDS011;53212;52.112;5.144;2023-07-20T10:20:10;1.60;;;0.70;;
66402;SDS011;53212;52.112;5.144;2023-07-20T10:22:37;0.60;;;0.60;;
66402;SDS011;53212;52.112;5.144;2023-07-20T10:25:04;0.50;;;0.50;;
66402;SDS011;53212;52.112;5.144;2023-07-20T10:27:30;0.50;;;0.40;;
66402;SDS011;53212;52.112;5.144;2023-07-20T10:29:56;1.40;;;0.60;;
66402;SDS011;53212;52.112;5.144;2023-07-20T10:32:24;0.70;;;0.70;;
66402;SDS011;53212;52.112;5.144;2023-07-20T10:34:55;0.70;;;0.60;;
66402;SDS011;53212;52.112;5.144;2023-07-20T10:37:47;0.60;;;0.60;;
66402;SDS011;53212;52.112;5.144;2023-07-20T10:40:47;1.20;;;0.80;;
66402;SDS011;53212;52.112;5.144;2023-07-20T10:43:20;1.10;;;1.00;;
66402;SDS011;53212;52.112;5.144;2023-07-20T10:45:52;0.80;;;0.70;;
66402;SDS011;53212;52.112;5.144;2023-07-20T10:48:25;0.80;;;0.70;;
66402;SDS011;53212;52.112;5.144;2023-07-20T10:51:13;0.70;;;0.70;;
66402;SDS011;53212;52.112;5.144;2023-07-20T10:53:39;1.00;;;0.60;;
66402;SDS011;53212;52.112;5.144;2023-07-20T10:56:13;1.10;;;0.40;;
66402;SDS011;53212;52.112;5.144;2023-07-20T10:58:40;0.90;;;0.50;;
66402;SDS011;53212;52.112;5.144;2023-07-20T11:01:07;0.60;;;0.60;;
66402;SDS011;53212;52.112;5.144;2023-07-20T11:03:35;2.50;;;0.90;;
66402;SDS011;53212;52.112;5.144;2023-07-20T11:09:09;0.60;;;0.60;;
66402;SDS011;53212;52.112;5.144;2023-07-20T11:11:47;0.80;;;0.60;;
66402;SDS011;53212;52.112;5.144;2023-07-20T11:14:26;3.70;;;0.60;;
66402;SDS011;53212;52.112;5.144;2023-07-20T11:16:57;0.70;;;0.60;;
66402;SDS011;53212;52.112;5.144;2023-07-20T11:19:39;0.80;;;0.60;;
66402;SDS011;53212;52.112;5.144;2023-07-20T11:22:08;0.50;;;0.50;;
66402;SDS011;53212;52.112;5.144;2023-07-20T11:24:38;1.80;;;0.80;;
66402;SDS011;53212;52.112;5.144;2023-07-20T11:27:05;0.60;;;0.50;;
66402;SDS011;53212;52.112;5.144;2023-07-20T11:29:31;0.60;;;0.60;;
66402;SDS011;53212;52.112;5.144;2023-07-20T11:31:57;0.70;;;0.70;;
66402;SDS011;53212;52.112;5.144;2023-07-20T11:34:26;1.30;;;0.60;;
66402;SDS011;53212;52.112;5.144;2023-07-20T11:36:52;0.70;;;0.70;;
66402;SDS011;53212;52.112;5.144;2023-07-20T11:39:19;0.70;;;0.60;;
66402;SDS011;53212;52.112;5.144;2023-07-20T11:41:53;0.60;;;0.60;;
66402;SDS011;53212;52.112;5.144;2023-07-20T11:44:21;0.50;;;0.50;;
66402;SDS011;53212;52.112;5.144;2023-07-20T11:47:07;1.40;;;0.60;;
66402;SDS011;53212;52.112;5.144;2023-07-20T11:49:41;0.50;;;0.50;;
66402;SDS011;53212;52.112;5.144;2023-07-20T11:52:13;1.30;;;0.40;;
66402;SDS011;53212;52.112;5.144;2023-07-20T11:54:41;0.50;;;0.50;;
66402;SDS011;53212;52.112;5.144;2023-07-20T11:57:07;2.20;;;0.50;;
66402;SDS011;53212;52.112;5.144;2023-07-20T11:59:33;1.60;;;0.70;;
66402;SDS011;53212;52.112;5.144;2023-07-20T12:02:00;1.00;;;0.60;;
66402;SDS011;53212;52.112;5.144;2023-07-20T12:04:28;0.50;;;0.50;;
66402;SDS011;53212;52.112;5.144;2023-07-20T12:06:54;0.50;;;0.50;;
66402;SDS011;53212;52.112;5.144;2023-07-20T12:09:20;1.30;;;0.70;;
66402;SDS011;53212;52.112;5.144;2023-07-20T12:11:48;0.80;;;0.60;;
66402;SDS011;53212;52.112;5.144;2023-07-20T12:14:15;2.20;;;0.80;;
66402;SDS011;53212;52.112;5.144;2023-07-20T12:16:41;0.60;;;0.60;;
66402;SDS011;53212;52.112;5.144;2023-07-20T12:19:13;0.60;;;0.60;;
66402;SDS011;53212;52.112;5.144;2023-07-20T12:21:41;0.80;;;0.60;;
66402;SDS011;53212;52.112;5.144;2023-07-20T12:24:10;0.60;;;0.60;;
66402;SDS011;53212;52.112;5.144;2023-07-20T12:26:36;0.80;;;0.40;;
66402;SDS011;53212;52.112;5.144;2023-07-20T12:29:02;0.60;;;0.60;;
66402;SDS011;53212;52.112;5.144;2023-07-20T12:31:29;0.70;;;0.60;;
66402;SDS011;53212;52.112;5.144;2023-07-20T12:33:57;0.70;;;0.60;;
66402;SDS011;53212;52.112;5.144;2023-07-20T12:36:23;0.50;;;0.50;;
66402;SDS011;53212;52.112;5.144;2023-07-20T12:38:50;0.80;;;0.70;;
66402;SDS011;53212;52.112;5.144;2023-07-20T12:41:15;1.30;;;0.70;;
66402;SDS011;53212;52.112;5.144;2023-07-20T12:43:41;0.80;;;0.80;;
66402;SDS011;53212;52.112;5.144;2023-07-20T12:46:08;1.00;;;0.80;;
66402;SDS011;53212;52.112;5.144;2023-07-20T12:48:35;1.10;;;1.00;;
66402;SDS011;53212;52.112;5.144;2023-07-20T12:51:05;2.00;;;0.90;;
66402;SDS011;53212;52.112;5.144;2023-07-20T12:53:31;2.70;;;0.70;;
66402;SDS011;53212;52.112;5.144;2023-07-20T12:55:57;1.30;;;0.70;;
66402;SDS011;53212;52.112;5.144;2023-07-20T12:58:23;1.10;;;0.70;;
66402;SDS011;53212;52.112;5.144;2023-07-20T13:00:49;0.90;;;0.70;;
66402;SDS011;53212;52.112;5.144;2023-07-20T13:03:14;1.50;;;0.70;;
66402;SDS011;53212;52.112;5.144;2023-07-20T13:05:41;1.50;;;0.90;;
66402;SDS011;53212;52.112;5.144;2023-07-20T13:08:07;1.30;;;0.70;;
66402;SDS011;53212;52.112;5.144;2023-07-20T13:10:32;1.80;;;0.90;;
66402;SDS011;53212;52.112;5.144;2023-07-20T13:12:59;1.10;;;0.80;;
66402;SDS011;53212;52.112;5.144;2023-07-20T13:15:30;1.40;;;0.80;;
66402;SDS011;53212;52.112;5.144;2023-07-20T13:17:57;1.20;;;0.80;;
66402;SDS011;53212;52.112;5.144;2023-07-20T13:20:24;1.20;;;0.70;;
66402;SDS011;53212;52.112;5.144;2023-07-20T13:22:50;1.40;;;0.60;;
66402;SDS011;53212;52.112;5.144;2023-07-20T13:25:16;1.00;;;0.70;;
66402;SDS011;53212;52.112;5.144;2023-07-20T13:27:41;1.80;;;0.80;;
66402;SDS011;53212;52.112;5.144;2023-07-20T13:30:07;1.50;;;0.90;;
66402;SDS011;53212;52.112;5.144;2023-07-20T13:32:35;1.00;;;0.70;;
66402;SDS011;53212;52.112;5.144;2023-07-20T13:35:01;1.30;;;0.40;;
66402;SDS011;53212;52.112;5.144;2023-07-20T13:37:26;1.40;;;0.60;;
66402;SDS011;53212;52.112;5.144;2023-07-20T13:39:52;0.80;;;0.70;;
66402;SDS011;53212;52.112;5.144;2023-07-20T13:42:17;0.80;;;0.60;;
66402;SDS011;53212;52.112;5.144;2023-07-20T13:44:43;0.70;;;0.70;;
66402;SDS011;53212;52.112;5.144;2023-07-20T13:47:08;0.60;;;0.60;;
66402;SDS011;53212;52.112;5.144;2023-07-20T13:49:34;1.20;;;0.50;;
66402;SDS011;53212;52.112;5.144;2023-07-20T13:51:59;1.50;;;0.50;;
66402;SDS011;53212;52.112;5.144;2023-07-20T13:54:25;0.60;;;0.60;;
66402;SDS011;53212;52.112;5.144;2023-07-20T13:56:51;0.50;;;0.50;;
66402;SDS011;53212;52.112;5.144;2023-07-20T13:59:17;0.60;;;0.60;;
66402;SDS011;53212;52.112;5.144;2023-07-20T14:01:43;1.90;;;0.60;;
66402;SDS011;53212;52.112;5.144;2023-07-20T14:04:08;0.90;;;0.60;;
66402;SDS011;53212;52.112;5.144;2023-07-20T14:06:34;2.10;;;0.60;;
66402;SDS011;53212;52.112;5.144;2023-07-20T14:09:00;0.60;;;0.60;;
66402;SDS011;53212;52.112;5.144;2023-07-20T14:11:26;1.50;;;0.70;;
66402;SDS011;53212;52.112;5.144;2023-07-20T14:13:52;0.60;;;0.60;;
66402;SDS011;53212;52.112;5.144;2023-07-20T14:16:19;0.90;;;0.70;;
66402;SDS011;53212;52.112;5.144;2023-07-20T14:18:45;1.20;;;0.80;;
66402;SDS011;53212;52.112;5.144;2023-07-20T14:21:17;0.60;;;0.50;;
66402;SDS011;53212;52.112;5.144;2023-07-20T14:23:48;0.90;;;0.60;;
66402;SDS011;53212;52.112;5.144;2023-07-20T14:26:16;0.80;;;0.50;;
66402;SDS011;53212;52.112;5.144;2023-07-20T14:28:41;0.70;;;0.60;;
66402;SDS011;53212;52.112;5.144;2023-07-20T14:31:07;0.60;;;0.50;;
66402;SDS011;53212;52.112;5.144;2023-07-20T14:33:33;0.60;;;0.60;;
66402;SDS011;53212;52.112;5.144;2023-07-20T14:35:59;0.60;;;0.60;;
66402;SDS011;53212;52.112;5.144;2023-07-20T14:38:27;0.70;;;0.60;;
66402;SDS011;53212;52.112;5.144;2023-07-20T14:40:53;1.20;;;0.50;;
66402;SDS011;53212;52.112;5.144;2023-07-20T14:43:19;0.70;;;0.70;;
66402;SDS011;53212;52.112;5.144;2023-07-20T14:45:44;1.70;;;0.60;;
66402;SDS011;53212;52.112;5.144;2023-07-20T14:48:10;0.40;;;0.40;;
66402;SDS011;53212;52.112;5.144;2023-07-20T14:50:36;1.60;;;0.60;;
66402;SDS011;53212;52.112;5.144;2023-07-20T14:53:01;0.60;;;0.60;;
66402;SDS011;53212;52.112;5.144;2023-07-20T14:55:28;0.50;;;0.50;;
66402;SDS011;53212;52.112;5.144;2023-07-20T14:57:54;0.50;;;0.50;;
66402;SDS011;53212;52.112;5.144;2023-07-20T15:00:19;0.70;;;0.50;;
66402;SDS011;53212;52.112;5.144;2023-07-20T15:02:45;0.60;;;0.60;;